Time;durP1;ratioP1;P1;durP2;ratioP2;P2;SDS_P1;SDS_P2;PMS_P1;PMS_P2;Temp;Humidity;BMP_temperature;BMP_pressure;BME280_temperature;BME280_humidity;BME280_pressure;Samples;Min_cycle;Max_cycle;Signal;HPM_P1;HPM_P2
2021/12/10 00:01:42;;;;;;;99.00;37.85;;;2.70;99.90;;;;;;5051752;28;20029;-73
2021/12/10 00:04:10;;;;;;;112.68;35.80;;;2.70;99.90;;;;;;5050745;28;20123;-74
2021/12/10 00:06:47;;;;;;;111.75;41.60;;;2.60;99.90;;;;;;5053127;28;20102;-73
2021/12/10 00:09:20;;;;;;;99.90;37.58;;;2.60;99.90;;;;;;5050619;28;20335;-73
2021/12/10 00:11:54;;;;;;;104.63;35.15;;;2.60;99.90;;;;;;5054064;28;20025;-73
2021/12/10 00:14:26;;;;;;;108.18;38.67;;;2.50;99.90;;;;;;5051766;28;20037;-73
2021/12/10 00:16:52;;;;;;;108.85;38.47;;;2.60;99.90;;;;;;5049413;28;20021;-73
2021/12/10 00:21:48;;;;;;;100.00;37.35;;;2.50;99.90;;;;;;5049332;28;20033;-73
2021/12/10 00:24:16;;;;;;;116.43;38.67;;;2.60;99.90;;;;;;5051916;28;20037;-73
2021/12/10 00:26:42;;;;;;;101.00;36.17;;;2.60;99.90;;;;;;5052102;28;20087;-73
2021/12/10 00:29:08;;;;;;;101.20;36.45;;;2.60;99.90;;;;;;5051804;28;20390;-73
2021/12/10 00:34:26;;;;;;;106.13;38.20;;;2.60;99.90;;;;;;5051441;28;20502;-73
2021/12/10 00:36:55;;;;;;;114.47;37.90;;;2.60;99.90;;;;;;5048319;28;20028;-74
2021/12/10 00:39:30;;;;;;;103.65;36.30;;;2.60;99.90;;;;;;5052930;28;20078;-73
2021/12/10 00:41:58;;;;;;;104.68;37.22;;;2.60;99.90;;;;;;5052283;28;20029;-73
2021/12/10 00:44:23;;;;;;;102.65;35.35;;;2.60;99.90;;;;;;5051797;28;20065;-73
2021/12/10 00:46:50;;;;;;;101.38;38.15;;;2.60;99.90;;;;;;5050849;28;20056;-73
2021/12/10 00:49:16;;;;;;;105.38;36.50;;;2.60;99.90;;;;;;5053684;28;20045;-73
2021/12/10 00:51:43;;;;;;;102.20;37.33;;;2.60;99.90;;;;;;5031295;28;20032;-73
2021/12/10 00:54:11;;;;;;;101.32;38.13;;;2.60;99.90;;;;;;5051389;28;20096;-73
2021/12/10 00:56:38;;;;;;;107.85;37.97;;;2.60;99.90;;;;;;5063088;28;20510;-73
2021/12/10 00:59:05;;;;;;;99.32;35.75;;;2.60;99.90;;;;;;5055144;28;20037;-74
2021/12/10 01:01:32;;;;;;;101.93;37.00;;;2.60;99.90;;;;;;5041901;28;20103;-73
2021/12/10 01:04:13;;;;;;;100.78;35.08;;;2.60;99.90;;;;;;5052861;28;20026;-73
2021/12/10 01:06:42;;;;;;;95.95;35.55;;;2.60;99.90;;;;;;5041088;28;20033;-73
2021/12/10 01:09:20;;;;;;;100.20;36.10;;;2.60;99.90;;;;;;5055443;28;20025;-73
2021/12/10 01:11:59;;;;;;;97.90;36.13;;;2.60;99.90;;;;;;5063051;28;20033;-72
2021/12/10 01:25:36;;;;;;;96.30;33.95;;;2.50;99.90;;;;;;5056159;28;20497;-72
2021/12/10 01:28:04;;;;;;;100.38;35.13;;;2.50;99.90;;;;;;5060673;28;20033;-73
2021/12/10 01:30:33;;;;;;;86.28;35.20;;;2.50;99.90;;;;;;5055220;28;20099;-73
2021/12/10 01:33:04;;;;;;;87.40;34.75;;;2.50;99.90;;;;;;5040411;28;20028;-73
2021/12/10 01:35:34;;;;;;;106.15;36.40;;;2.50;99.90;;;;;;5044980;28;20111;-73
2021/12/10 01:38:00;;;;;;;102.53;35.65;;;2.50;99.90;;;;;;5055033;28;20043;-74
2021/12/10 01:40:28;;;;;;;85.38;31.80;;;2.60;99.90;;;;;;5037152;28;20029;-73
2021/12/10 01:43:01;;;;;;;87.55;32.72;;;2.60;99.90;;;;;;5051829;28;20483;-73
2021/12/10 01:45:31;;;;;;;87.30;33.80;;;2.60;99.90;;;;;;5054434;28;20135;-73
2021/12/10 01:48:04;;;;;;;99.30;35.20;;;2.60;99.90;;;;;;5054949;28;20021;-72
2021/12/10 01:50:30;;;;;;;85.63;33.45;;;2.60;99.90;;;;;;5058469;28;20026;-73
2021/12/10 01:53:00;;;;;;;89.00;33.33;;;2.60;99.90;;;;;;5058466;28;20016;-73
2021/12/10 01:55:28;;;;;;;92.80;34.00;;;2.60;99.90;;;;;;5055297;28;20087;-73
2021/12/10 01:57:55;;;;;;;98.57;35.45;;;2.60;99.90;;;;;;5056124;28;20028;-72
2021/12/10 02:00:25;;;;;;;84.40;31.23;;;2.50;99.90;;;;;;5041290;28;20024;-73
2021/12/10 02:02:51;;;;;;;93.07;34.37;;;2.60;99.90;;;;;;5054035;28;20021;-72
2021/12/10 02:05:17;;;;;;;91.15;31.80;;;2.50;99.90;;;;;;5058949;28;20056;-73
2021/12/10 02:07:44;;;;;;;84.47;33.08;;;2.60;99.90;;;;;;5057914;28;20031;-73
2021/12/10 02:10:11;;;;;;;91.63;31.75;;;2.60;99.90;;;;;;5042881;28;20107;-73
2021/12/10 02:12:37;;;;;;;74.78;30.13;;;2.60;99.90;;;;;;5051548;28;20580;-73
2021/12/10 02:15:04;;;;;;;80.93;31.17;;;2.60;99.90;;;;;;5039935;28;20035;-73
2021/12/10 02:17:37;;;;;;;78.18;29.73;;;2.60;99.90;;;;;;5059384;28;20031;-72
2021/12/10 02:20:11;;;;;;;78.03;30.27;;;2.60;99.90;;;;;;5057909;28;20028;-72
2021/12/10 02:22:38;;;;;;;87.15;32.28;;;2.60;99.90;;;;;;5053985;28;20087;-73
2021/12/10 02:25:05;;;;;;;85.43;31.40;;;2.60;99.90;;;;;;5056295;28;20039;-72
2021/12/10 02:27:31;;;;;;;91.57;33.00;;;2.60;99.90;;;;;;5054641;28;20074;-73
2021/12/10 02:29:57;;;;;;;86.20;31.17;;;2.60;99.90;;;;;;5050426;28;20040;-73
2021/12/10 02:32:25;;;;;;;81.82;31.55;;;2.60;99.90;;;;;;5052033;28;20100;-73
2021/12/10 02:34:53;;;;;;;88.80;31.52;;;2.60;99.90;;;;;;5047850;28;20079;-73
2021/12/10 02:37:19;;;;;;;84.85;31.95;;;2.60;99.90;;;;;;5053691;28;20463;-72
2021/12/10 02:39:45;;;;;;;87.03;32.22;;;2.70;99.90;;;;;;5055655;28;20403;-72
2021/12/10 02:42:10;;;;;;;82.68;32.08;;;2.60;99.90;;;;;;5060270;28;20023;-73
2021/12/10 02:44:36;;;;;;;88.88;33.15;;;2.60;99.90;;;;;;5037477;28;20028;-73
2021/12/10 02:47:03;;;;;;;88.05;33.75;;;2.60;99.90;;;;;;5056544;28;20103;-73
2021/12/10 02:49:29;;;;;;;88.90;33.20;;;2.60;99.90;;;;;;5053719;28;20516;-72
2021/12/10 02:51:56;;;;;;;85.13;32.78;;;2.60;99.90;;;;;;5051568;28;20044;-72
2021/12/10 02:54:33;;;;;;;84.05;32.17;;;2.60;99.90;;;;;;5052050;28;20020;-72
2021/12/10 02:57:00;;;;;;;84.15;32.05;;;2.60;99.90;;;;;;5054209;28;20045;-73
2021/12/10 02:59:25;;;;;;;90.70;32.45;;;2.60;99.90;;;;;;5050927;28;20021;-73
2021/12/10 03:01:52;;;;;;;87.70;30.17;;;2.60;99.90;;;;;;5051325;28;20580;-73
2021/12/10 03:04:18;;;;;;;85.25;31.80;;;2.60;99.90;;;;;;5056557;28;20029;-74
2021/12/10 03:06:49;;;;;;;91.65;32.28;;;2.60;99.90;;;;;;5059594;28;20104;-74
2021/12/10 03:09:17;;;;;;;89.18;33.15;;;2.60;99.90;;;;;;5053549;28;20028;-73
2021/12/10 03:11:46;;;;;;;88.07;33.30;;;2.60;99.90;;;;;;5059556;28;20112;-73
2021/12/10 03:14:13;;;;;;;91.65;34.00;;;2.60;99.90;;;;;;5052150;28;20489;-72
2021/12/10 03:16:41;;;;;;;82.65;32.00;;;2.60;99.90;;;;;;5037955;28;20063;-73
2021/12/10 03:19:07;;;;;;;91.57;34.10;;;2.60;99.90;;;;;;5053092;28;20067;-73
2021/12/10 03:21:34;;;;;;;89.88;31.83;;;2.60;99.90;;;;;;5048615;28;20198;-73
2021/12/10 03:24:00;;;;;;;91.57;32.60;;;2.60;99.90;;;;;;5033584;28;20493;-73
2021/12/10 03:26:26;;;;;;;82.63;32.25;;;2.60;99.90;;;;;;5054173;28;20600;-73
2021/12/10 03:28:53;;;;;;;83.65;31.40;;;2.60;99.90;;;;;;5052349;28;20478;-72
2021/12/10 03:31:21;;;;;;;88.28;32.00;;;2.60;99.90;;;;;;5052987;28;20040;-73
2021/12/10 03:33:48;;;;;;;90.68;32.70;;;2.50;99.90;;;;;;5055289;28;20025;-73
2021/12/10 03:36:14;;;;;;;81.78;33.00;;;2.60;99.90;;;;;;5050116;28;20086;-73
2021/12/10 03:38:42;;;;;;;86.43;32.75;;;2.60;99.90;;;;;;5054947;28;20279;-72
2021/12/10 03:41:10;;;;;;;77.25;30.85;;;2.50;99.90;;;;;;5050548;28;20502;-72
2021/12/10 03:43:37;;;;;;;89.13;33.08;;;2.50;99.90;;;;;;5054493;28;20473;-73
2021/12/10 03:46:05;;;;;;;83.03;31.15;;;2.50;99.90;;;;;;5056666;28;20050;-72
2021/12/10 03:48:42;;;;;;;80.97;31.73;;;2.50;99.90;;;;;;5055387;28;20108;-72
2021/12/10 03:51:11;;;;;;;82.38;31.02;;;2.50;99.90;;;;;;5046730;28;20274;-73
2021/12/10 03:53:37;;;;;;;89.10;33.10;;;2.60;99.90;;;;;;5050190;28;20056;-72
2021/12/10 03:56:10;;;;;;;77.10;29.52;;;2.60;99.90;;;;;;5051553;28;20016;-73
2021/12/10 03:58:39;;;;;;;81.22;30.38;;;2.60;99.90;;;;;;5053446;28;20037;-73
2021/12/10 04:01:07;;;;;;;79.88;29.83;;;2.60;99.90;;;;;;5052617;28;20052;-73
2021/12/10 04:03:33;;;;;;;87.18;31.33;;;2.60;99.90;;;;;;5053044;28;20734;-73
2021/12/10 04:05:59;;;;;;;77.32;29.30;;;2.60;99.90;;;;;;5051572;28;20059;-73
2021/12/10 04:08:25;;;;;;;84.68;30.63;;;2.60;99.90;;;;;;5055603;28;20424;-73
2021/12/10 04:10:53;;;;;;;74.43;31.33;;;2.60;99.90;;;;;;5047834;28;20099;-72
2021/12/10 04:13:19;;;;;;;80.95;29.05;;;2.60;99.90;;;;;;5051499;28;20033;-73
2021/12/10 04:15:46;;;;;;;80.97;30.33;;;2.60;99.90;;;;;;5050647;28;20091;-72
2021/12/10 04:18:12;;;;;;;74.80;30.40;;;2.60;99.90;;;;;;5036510;28;20102;-73
2021/12/10 04:20:40;;;;;;;80.38;29.13;;;2.50;99.90;;;;;;5047530;28;20078;-72
2021/12/10 04:23:10;;;;;;;74.57;28.45;;;2.60;99.90;;;;;;5053193;28;20536;-72
2021/12/10 04:25:36;;;;;;;67.38;27.30;;;2.50;99.90;;;;;;5053736;28;20135;-72
2021/12/10 04:28:07;;;;;;;65.10;26.48;;;2.60;99.90;;;;;;5051974;28;20030;-72
2021/12/10 04:30:39;;;;;;;72.53;28.20;;;2.50;99.90;;;;;;5052357;28;20244;-72
2021/12/10 04:33:06;;;;;;;72.57;28.20;;;2.60;99.90;;;;;;5055413;28;20045;-72
2021/12/10 04:35:32;;;;;;;68.57;26.50;;;2.60;99.90;;;;;;5053355;28;20025;-73
2021/12/10 04:37:58;;;;;;;72.57;27.63;;;2.60;99.90;;;;;;5055671;28;20060;-72
2021/12/10 04:40:23;;;;;;;69.50;27.77;;;2.60;99.90;;;;;;5054349;28;20101;-72
2021/12/10 04:42:49;;;;;;;64.13;25.67;;;2.60;99.90;;;;;;5055068;28;20036;-72
2021/12/10 04:45:18;;;;;;;64.07;23.88;;;2.60;99.90;;;;;;5035147;28;20032;-72
2021/12/10 04:47:45;;;;;;;70.60;24.60;;;2.60;99.90;;;;;;5037533;28;20024;-72
2021/12/10 04:50:12;;;;;;;63.63;24.67;;;2.60;99.90;;;;;;5054596;28;20036;-72
2021/12/10 04:52:38;;;;;;;60.80;23.92;;;2.60;99.90;;;;;;5036038;28;20044;-71
2021/12/10 04:55:07;;;;;;;58.13;24.42;;;2.60;99.90;;;;;;5057531;28;20020;-72
2021/12/10 04:57:33;;;;;;;67.10;27.08;;;2.60;99.90;;;;;;5056098;28;20545;-72
2021/12/10 04:59:59;;;;;;;60.55;24.33;;;2.50;99.90;;;;;;5054795;28;20112;-72
2021/12/10 05:02:26;;;;;;;65.88;25.92;;;2.60;99.90;;;;;;5051653;28;20148;-72
2021/12/10 05:04:56;;;;;;;69.15;26.10;;;2.60;99.90;;;;;;5057362;28;20028;-72
2021/12/10 05:07:23;;;;;;;67.15;25.15;;;2.60;99.90;;;;;;5056268;28;20169;-72
2021/12/10 05:09:49;;;;;;;68.28;25.33;;;2.60;99.90;;;;;;5050992;28;20024;-72
2021/12/10 05:12:16;;;;;;;63.53;25.40;;;2.60;99.90;;;;;;5055408;28;20025;-72
2021/12/10 05:14:42;;;;;;;62.83;25.15;;;2.60;99.90;;;;;;5054422;28;20107;-72
2021/12/10 05:17:09;;;;;;;57.50;23.15;;;2.60;99.90;;;;;;5036477;28;20104;-72
2021/12/10 05:19:38;;;;;;;58.28;24.25;;;2.60;99.90;;;;;;5055724;28;20075;-72
2021/12/10 05:22:06;;;;;;;64.00;24.77;;;2.60;99.90;;;;;;5041016;28;20878;-72
2021/12/10 05:24:32;;;;;;;70.40;25.20;;;2.60;99.90;;;;;;5036153;28;20043;-71
2021/12/10 05:26:59;;;;;;;64.88;24.02;;;2.60;99.90;;;;;;5059998;28;20016;-72
2021/12/10 05:29:24;;;;;;;64.68;24.83;;;2.60;99.90;;;;;;5041976;28;20041;-72
2021/12/10 05:31:51;;;;;;;65.60;23.58;;;2.70;99.90;;;;;;5055474;28;20507;-71
2021/12/10 05:34:17;;;;;;;64.63;24.17;;;2.70;99.90;;;;;;5055083;28;20035;-72
2021/12/10 05:36:44;;;;;;;66.32;25.25;;;2.60;99.90;;;;;;5054978;28;20029;-72
2021/12/10 05:39:11;;;;;;;65.97;25.92;;;2.60;99.90;;;;;;5056842;28;20032;-72
2021/12/10 05:41:37;;;;;;;65.43;24.33;;;2.60;99.90;;;;;;5055260;28;20033;-73
2021/12/10 05:44:04;;;;;;;67.22;25.80;;;2.60;99.90;;;;;;5059068;28;20033;-72
2021/12/10 05:46:31;;;;;;;59.78;24.13;;;2.50;99.90;;;;;;5061729;28;20402;-73
2021/12/10 05:48:58;;;;;;;59.28;22.75;;;2.50;99.90;;;;;;5058563;28;20110;-72
2021/12/10 05:51:24;;;;;;;68.30;25.08;;;2.50;99.90;;;;;;5053666;28;20113;-72
2021/12/10 05:53:50;;;;;;;73.32;26.05;;;2.50;99.90;;;;;;5061634;28;20444;-73
2021/12/10 05:56:17;;;;;;;68.57;26.35;;;2.40;99.90;;;;;;5039983;28;20017;-72
2021/12/10 05:58:44;;;;;;;57.40;23.58;;;2.40;99.90;;;;;;5037707;28;20048;-72
2021/12/10 06:01:12;;;;;;;57.38;21.83;;;2.40;99.90;;;;;;5051882;28;20524;-72
2021/12/10 06:03:42;;;;;;;55.47;23.83;;;2.30;99.90;;;;;;5048766;22;20041;-74
2021/12/10 06:06:08;;;;;;;55.70;23.52;;;2.30;99.90;;;;;;5026749;28;20400;-74
2021/12/10 06:08:35;;;;;;;58.78;23.27;;;2.30;99.90;;;;;;5026459;28;20069;-74
2021/12/10 06:11:02;;;;;;;59.95;22.60;;;2.30;99.90;;;;;;5008587;28;20034;-74
2021/12/10 06:13:28;;;;;;;63.75;22.55;;;2.30;99.90;;;;;;5029489;28;20489;-74
2021/12/10 06:15:55;;;;;;;62.53;25.45;;;2.30;99.90;;;;;;5031106;28;20045;-73
2021/12/10 06:18:20;;;;;;;57.92;23.60;;;2.20;99.90;;;;;;5032209;28;20095;-74
2021/12/10 06:20:52;;;;;;;58.97;23.15;;;2.20;99.90;;;;;;5026737;28;20490;-74
2021/12/10 06:23:18;;;;;;;56.60;23.08;;;2.20;99.90;;;;;;5027892;28;20025;-74
2021/12/10 06:25:44;;;;;;;61.75;22.83;;;2.20;99.90;;;;;;5031024;28;20025;-72
2021/12/10 06:28:10;;;;;;;63.10;22.05;;;2.10;99.90;;;;;;5031627;28;20029;-74
2021/12/10 06:30:40;;;;;;;58.83;24.05;;;2.10;99.90;;;;;;5031485;28;20025;-74
2021/12/10 06:33:11;;;;;;;58.60;22.87;;;2.10;99.90;;;;;;5028552;28;20029;-74
2021/12/10 06:35:38;;;;;;;61.65;22.58;;;2.10;99.90;;;;;;5026695;28;20035;-74
2021/12/10 06:38:04;;;;;;;62.53;23.90;;;2.10;99.90;;;;;;5026845;28;20029;-75
2021/12/10 06:40:32;;;;;;;63.63;23.65;;;2.20;99.90;;;;;;5032532;28;20391;-74
2021/12/10 06:42:58;;;;;;;61.60;22.63;;;2.20;99.90;;;;;;5028714;28;20091;-74
2021/12/10 06:45:29;;;;;;;64.55;23.67;;;2.20;99.90;;;;;;5029638;28;20029;-74
2021/12/10 06:47:58;;;;;;;59.00;23.67;;;2.30;99.90;;;;;;5029414;28;20037;-74
2021/12/10 06:50:28;;;;;;;58.97;23.83;;;2.30;99.90;;;;;;4995027;28;20368;-74
2021/12/10 06:52:54;;;;;;;60.75;23.58;;;2.30;99.90;;;;;;5010539;28;20060;-74
2021/12/10 06:55:21;;;;;;;60.38;22.63;;;2.40;99.90;;;;;;5028274;28;20030;-74
2021/12/10 06:57:47;;;;;;;66.03;24.73;;;2.40;99.90;;;;;;5029781;28;20483;-74
2021/12/10 07:00:23;;;;;;;63.25;23.60;;;2.40;99.90;;;;;;5027750;28;20035;-74
2021/12/10 07:02:49;;;;;;;59.42;24.60;;;2.40;99.90;;;;;;5029671;28;20029;-74
2021/12/10 07:05:15;;;;;;;53.47;22.83;;;2.40;99.90;;;;;;5029884;28;20048;-74
2021/12/10 07:07:42;;;;;;;58.13;22.80;;;2.40;99.90;;;;;;5012819;28;20030;-74
2021/12/10 07:10:10;;;;;;;67.10;24.20;;;2.50;99.90;;;;;;5028609;28;20429;-74
2021/12/10 07:12:37;;;;;;;62.22;24.77;;;2.50;99.90;;;;;;5027329;28;20025;-75
2021/12/10 07:15:08;;;;;;;62.53;24.90;;;2.50;99.90;;;;;;5029486;28;20112;-73
2021/12/10 07:17:34;;;;;;;69.43;25.63;;;2.50;99.90;;;;;;5026808;28;20026;-73
2021/12/10 07:20:00;;;;;;;60.95;24.05;;;2.50;99.90;;;;;;5027866;28;20051;-73
2021/12/10 07:22:26;;;;;;;60.92;23.30;;;2.50;99.90;;;;;;5027800;28;20029;-73
2021/12/10 07:24:51;;;;;;;61.08;25.20;;;2.50;99.90;;;;;;5026612;28;20040;-72
2021/12/10 07:27:17;;;;;;;65.05;24.60;;;2.50;99.90;;;;;;5027757;28;20131;-72
2021/12/10 07:29:43;;;;;;;68.63;25.77;;;2.60;99.90;;;;;;5027312;28;20051;-72
2021/12/10 07:32:11;;;;;;;68.35;25.80;;;2.60;99.90;;;;;;5028778;28;20033;-73
2021/12/10 07:34:37;;;;;;;61.15;25.20;;;2.60;99.90;;;;;;5010187;28;20049;-73
2021/12/10 07:37:03;;;;;;;67.70;25.08;;;2.60;99.90;;;;;;5029878;28;20108;-72
2021/12/10 07:39:29;;;;;;;67.72;25.75;;;2.60;99.90;;;;;;5030999;28;20029;-72
2021/12/10 07:41:55;;;;;;;63.38;24.30;;;2.60;99.90;;;;;;5027575;28;20033;-73
2021/12/10 07:44:21;;;;;;;59.80;23.05;;;2.60;99.90;;;;;;5030438;28;20032;-72
2021/12/10 07:46:48;;;;;;;62.60;24.90;;;2.60;99.90;;;;;;5030061;28;20028;-72
2021/12/10 07:49:16;;;;;;;64.10;23.55;;;2.60;99.90;;;;;;5030507;28;20026;-73
2021/12/10 07:51:47;;;;;;;64.28;24.98;;;2.60;99.90;;;;;;5028719;28;20517;-73
2021/12/10 07:54:13;;;;;;;62.80;23.85;;;2.60;99.90;;;;;;5029763;28;20026;-72
2021/12/10 07:56:39;;;;;;;61.85;25.33;;;2.70;99.90;;;;;;5028227;28;20038;-74
2021/12/10 07:59:05;;;;;;;63.95;24.50;;;2.70;99.90;;;;;;5028322;28;20030;-73
2021/12/10 08:01:31;;;;;;;61.88;23.33;;;2.70;99.90;;;;;;5028055;28;20506;-73
2021/12/10 08:04:00;;;;;;;62.03;23.95;;;2.70;99.90;;;;;;5007710;28;20131;-73
2021/12/10 08:06:28;;;;;;;67.07;26.05;;;2.70;99.90;;;;;;5033014;28;20108;-73
2021/12/10 08:08:54;;;;;;;58.30;23.58;;;2.70;99.90;;;;;;5033599;28;20040;-73
2021/12/10 08:11:20;;;;;;;58.40;24.08;;;2.60;99.90;;;;;;5033940;28;20025;-73
2021/12/10 08:13:47;;;;;;;62.10;25.05;;;2.60;99.90;;;;;;5032970;28;20026;-73
2021/12/10 08:16:13;;;;;;;59.95;23.30;;;2.60;99.90;;;;;;5032724;28;20097;-73
2021/12/10 08:18:39;;;;;;;58.20;23.98;;;2.60;99.90;;;;;;5033557;28;20463;-73
2021/12/10 08:21:05;;;;;;;61.97;23.80;;;2.60;99.90;;;;;;5033239;28;20029;-74
2021/12/10 08:23:32;;;;;;;62.53;23.67;;;2.70;99.90;;;;;;5032020;28;20485;-73
2021/12/10 08:25:58;;;;;;;58.80;23.27;;;2.70;99.90;;;;;;5028811;28;20624;-73
2021/12/10 08:28:26;;;;;;;55.58;23.20;;;2.70;99.90;;;;;;5033111;28;20041;-74
2021/12/10 08:30:54;;;;;;;58.58;23.92;;;2.70;99.90;;;;;;5033067;28;20033;-73
2021/12/10 08:33:20;;;;;;;60.80;22.38;;;2.70;99.90;;;;;;5011487;28;20030;-73
2021/12/10 08:35:51;;;;;;;58.95;22.83;;;2.70;99.90;;;;;;5032021;28;20022;-73
2021/12/10 08:38:17;;;;;;;;;;;2.70;99.90;;;;;;5029862;28;20029;-74
2021/12/10 08:40:49;;;;;;;52.22;20.23;;;2.70;99.90;;;;;;5028956;28;19932;-73
2021/12/10 08:43:16;;;;;;;58.15;22.02;;;2.80;99.90;;;;;;4996664;28;20036;-73
2021/12/10 08:45:44;;;;;;;60.55;22.95;;;2.70;99.90;;;;;;5030852;28;20059;-71
2021/12/10 08:48:10;;;;;;;55.30;23.30;;;2.70;99.90;;;;;;5031952;28;20507;-72
2021/12/10 08:50:38;;;;;;;53.03;22.17;;;2.70;99.90;;;;;;5031196;28;20116;-73
2021/12/10 08:53:07;;;;;;;61.17;23.77;;;2.70;99.90;;;;;;5032601;28;20028;-72
2021/12/10 08:55:35;;;;;;;58.13;21.90;;;2.70;99.90;;;;;;5032756;28;20035;-73
2021/12/10 08:58:02;;;;;;;53.63;21.85;;;2.70;99.90;;;;;;5032213;28;20024;-72
2021/12/10 09:00:28;;;;;;;56.50;21.33;;;2.80;99.90;;;;;;5032688;28;20017;-72
2021/12/10 09:02:55;;;;;;;56.63;22.95;;;2.80;99.90;;;;;;5030197;28;20052;-72
2021/12/10 09:05:22;;;;;;;53.47;20.90;;;2.90;99.90;;;;;;5031590;28;20040;-73
2021/12/10 09:07:48;;;;;;;52.60;20.70;;;2.90;99.90;;;;;;5011473;28;20029;-72
2021/12/10 09:10:18;;;;;;;58.55;21.10;;;2.90;99.90;;;;;;5032982;28;20052;-73
2021/12/10 09:12:44;;;;;;;56.85;21.90;;;2.90;99.90;;;;;;5031621;28;20104;-72
2021/12/10 09:15:15;;;;;;;54.30;22.15;;;2.90;99.90;;;;;;5031894;28;20018;-72
2021/12/10 09:17:41;;;;;;;59.63;23.52;;;3.00;99.90;;;;;;5028336;28;20030;-72
2021/12/10 09:20:16;;;;;;;51.38;21.42;;;2.90;99.90;;;;;;5032310;28;20442;-72
2021/12/10 09:22:43;;;;;;;58.55;22.30;;;3.00;99.90;;;;;;5031917;28;20037;-73
2021/12/10 09:25:10;;;;;;;53.40;21.10;;;3.00;99.90;;;;;;5033343;28;20025;-72
2021/12/10 09:27:36;;;;;;;52.20;20.33;;;3.00;99.90;;;;;;5037153;28;20113;-72
2021/12/10 09:30:06;;;;;;;52.10;19.90;;;3.00;99.90;;;;;;5030039;28;20108;-72
2021/12/10 09:32:31;;;;;;;55.78;21.00;;;3.00;99.90;;;;;;5028711;28;20051;-73
2021/12/10 09:35:02;;;;;;;52.60;19.90;;;3.00;99.90;;;;;;5028584;28;20033;-72
2021/12/10 09:37:29;;;;;;;56.72;21.00;;;3.00;99.90;;;;;;5029946;28;20021;-73
2021/12/10 09:39:55;;;;;;;54.28;19.92;;;3.00;99.90;;;;;;5032019;28;20037;-72
2021/12/10 09:42:22;;;;;;;51.03;20.73;;;3.00;99.90;;;;;;5031544;28;20108;-72
2021/12/10 09:44:51;;;;;;;46.70;18.73;;;3.00;99.90;;;;;;5031272;28;20129;-72
2021/12/10 09:47:18;;;;;;;51.22;19.08;;;3.00;99.90;;;;;;5032428;28;20029;-72
2021/12/10 09:49:46;;;;;;;51.92;19.63;;;3.10;99.90;;;;;;5032084;28;20071;-73
2021/12/10 09:52:12;;;;;;;49.05;19.13;;;3.10;99.90;;;;;;5029905;28;20029;-73
2021/12/10 09:54:39;;;;;;;49.90;19.23;;;3.10;99.90;;;;;;5031076;28;20029;-73
2021/12/10 09:57:11;;;;;;;40.08;17.48;;;3.10;99.90;;;;;;5030613;28;20379;-73
2021/12/10 09:59:38;;;;;;;44.75;18.27;;;3.20;99.90;;;;;;5029549;28;20041;-73
2021/12/10 10:02:05;;;;;;;52.53;17.17;;;3.20;99.90;;;;;;5030667;28;20371;-74
2021/12/10 10:04:35;;;;;;;39.72;17.88;;;3.20;99.90;;;;;;5032399;28;20035;-73
2021/12/10 10:07:05;;;;;;;42.00;17.20;;;3.20;99.90;;;;;;5027317;28;20025;-74
2021/12/10 10:09:32;;;;;;;42.40;16.90;;;3.20;99.90;;;;;;5028648;28;20074;-73
2021/12/10 10:12:08;;;;;;;42.20;16.08;;;3.20;99.90;;;;;;5030008;28;20190;-73
2021/12/10 10:14:35;;;;;;;40.30;16.50;;;3.30;99.90;;;;;;5028451;28;20033;-73
2021/12/10 10:17:01;;;;;;;36.30;16.27;;;3.30;99.90;;;;;;5027689;28;20025;-73
2021/12/10 10:19:27;;;;;;;41.00;16.33;;;3.30;99.90;;;;;;5013842;28;20029;-73
2021/12/10 10:21:55;;;;;;;37.45;15.57;;;3.40;99.90;;;;;;5029779;28;20026;-71
2021/12/10 10:24:26;;;;;;;42.17;17.00;;;3.40;99.90;;;;;;5028037;28;20442;-72
2021/12/10 10:26:59;;;;;;;42.42;16.10;;;3.40;99.90;;;;;;5029546;28;20033;-71
2021/12/10 10:29:29;;;;;;;32.95;15.05;;;3.50;99.90;;;;;;5025582;28;20514;-72
2021/12/10 10:31:58;;;;;;;38.35;15.85;;;3.60;99.90;;;;;;5028161;28;20132;-72
2021/12/10 10:34:27;;;;;;;42.85;15.20;;;3.60;99.90;;;;;;5027250;28;20036;-72
2021/12/10 10:36:53;;;;;;;42.38;16.23;;;3.60;99.90;;;;;;5009635;28;20395;-73
2021/12/10 10:39:32;;;;;;;39.95;15.23;;;3.70;99.90;;;;;;5029883;28;20025;-73
2021/12/10 10:41:58;;;;;;;37.00;16.13;;;3.70;99.90;;;;;;5009878;28;20372;-72
2021/12/10 10:44:25;;;;;;;41.20;17.15;;;3.60;99.90;;;;;;5027412;28;20034;-72
2021/12/10 10:46:55;;;;;;;45.35;16.15;;;3.60;99.90;;;;;;5030264;28;20041;-72
2021/12/10 10:49:41;;;;;;;36.72;15.50;;;3.70;99.90;;;;;;5027664;28;20044;-72
2021/12/10 10:52:30;;;;;;;37.00;14.55;;;3.60;99.90;;;;;;5027502;28;20052;-72
2021/12/10 10:55:18;;;;;;;36.20;14.82;;;3.70;99.90;;;;;;5026179;28;20033;-72
2021/12/10 10:57:57;;;;;;;38.28;15.13;;;3.80;99.90;;;;;;5024053;28;20025;-72
2021/12/10 11:00:46;;;;;;;35.78;14.57;;;3.80;99.90;;;;;;5027074;28;20090;-73
2021/12/10 11:03:16;;;;;;;33.72;14.00;;;3.90;99.90;;;;;;5027642;28;20041;-73
2021/12/10 11:05:56;;;;;;;34.55;14.65;;;3.90;99.90;;;;;;5026949;28;20483;-72
2021/12/10 11:08:33;;;;;;;35.78;14.23;;;3.90;99.90;;;;;;5010264;28;20548;-73
2021/12/10 11:11:15;;;;;;;34.97;14.77;;;4.00;99.90;;;;;;5026641;28;20120;-73
2021/12/10 11:13:42;;;;;;;39.50;15.73;;;4.00;99.90;;;;;;5013382;28;20104;-73
2021/12/10 11:16:13;;;;;;;38.70;16.75;;;4.00;99.90;;;;;;5026597;28;20714;-73
2021/12/10 11:18:52;;;;;;;35.80;16.35;;;4.10;99.90;;;;;;5027756;28;20037;-72
2021/12/10 11:21:54;;;;;;;38.45;16.05;;;4.10;99.90;;;;;;5029428;28;20025;-73
2021/12/10 11:24:23;;;;;;;;;;;4.20;99.90;;;;;;5030554;28;20479;-73
2021/12/10 11:27:20;;;;;;;41.50;15.05;;;4.30;99.90;;;;;;5027278;28;20283;-73
2021/12/10 11:30:02;;;;;;;39.33;15.98;;;4.30;99.90;;;;;;4996870;28;20042;-73
2021/12/10 11:32:52;;;;;;;32.70;15.20;;;4.30;99.90;;;;;;5029829;28;20026;-73
2021/12/10 11:35:31;;;;;;;35.33;14.20;;;4.30;99.90;;;;;;5024048;28;20040;-73
2021/12/10 11:38:02;;;;;;;35.70;15.48;;;4.30;99.90;;;;;;5026882;28;20056;-72
2021/12/10 11:40:33;;;;;;;;;;;4.40;99.90;;;;;;4996156;28;20044;-73
2021/12/10 11:49:10;;;;;;;36.63;15.45;;;4.50;99.90;;;;;;5024157;28;20095;-73
2021/12/10 11:51:48;;;;;;;32.22;14.85;;;4.50;99.90;;;;;;5015238;28;20491;-73
2021/12/10 11:54:16;;;;;;;35.45;14.65;;;4.50;99.90;;;;;;5010082;28;20498;-73
2021/12/10 11:56:46;;;;;;;41.08;15.65;;;4.50;99.90;;;;;;5026705;28;20746;-72
2021/12/10 11:59:14;;;;;;;37.30;15.50;;;4.50;99.90;;;;;;5026876;28;20060;-73
2021/12/10 12:02:05;;;;;;;33.72;14.18;;;4.50;99.90;;;;;;5026678;28;20033;-73
2021/12/10 12:04:49;;;;;;;34.08;13.20;;;4.40;99.90;;;;;;5048835;22;20483;-75
2021/12/10 12:07:36;;;;;;;36.78;15.88;;;4.40;99.90;;;;;;5028749;28;20036;-75
2021/12/10 12:10:20;;;;;;;40.95;15.27;;;4.40;99.90;;;;;;5047652;28;20116;-75
2021/12/10 12:12:55;;;;;;;33.28;14.75;;;4.40;99.90;;;;;;5027956;28;20029;-75
2021/12/10 12:15:29;;;;;;;35.45;13.95;;;4.40;99.90;;;;;;5044934;28;20040;-75
2021/12/10 12:18:02;;;;;;;35.22;15.82;;;4.40;99.90;;;;;;5046923;28;20029;-74
2021/12/10 12:20:43;;;;;;;33.65;14.20;;;4.40;99.90;;;;;;5046216;28;20037;-74
2021/12/10 12:26:39;;;;;;;32.50;14.40;;;4.50;99.90;;;;;;4945752;28;20072;-74
2021/12/10 12:29:10;;;;;;;37.78;15.90;;;4.50;99.90;;;;;;5022857;28;20130;-75
2021/12/10 12:31:45;;;;;;;34.08;14.63;;;4.40;99.90;;;;;;5044364;28;20386;-76
2021/12/10 12:34:24;;;;;;;33.75;13.27;;;4.40;99.90;;;;;;5049957;28;20059;-76
2021/12/10 12:37:06;;;;;;;38.70;15.27;;;4.40;99.90;;;;;;5047033;28;20029;-75
2021/12/10 12:39:50;;;;;;;36.63;14.35;;;4.30;99.90;;;;;;5015916;28;20021;-75
2021/12/10 12:42:19;;;;;;;35.25;14.38;;;4.30;99.90;;;;;;5050089;28;20037;-75
2021/12/10 12:44:47;;;;;;;36.30;14.90;;;4.30;99.90;;;;;;5045191;28;20390;-75
2021/12/10 12:47:13;;;;;;;37.20;15.35;;;4.20;99.90;;;;;;5044479;28;20032;-76
2021/12/10 12:49:48;;;;;;;35.97;15.05;;;4.20;99.90;;;;;;5046825;28;20381;-75
2021/12/10 12:52:23;;;;;;;36.67;14.35;;;4.20;99.90;;;;;;5044908;28;20490;-76
2021/12/10 12:55:13;;;;;;;35.70;15.90;;;4.20;99.90;;;;;;5028953;28;20025;-75
2021/12/10 12:57:52;;;;;;;38.80;15.43;;;4.20;99.90;;;;;;5047048;28;20559;-75
2021/12/10 13:00:25;;;;;;;33.30;14.73;;;4.20;99.90;;;;;;5028625;28;20096;-75
2021/12/10 13:02:56;;;;;;;37.83;15.10;;;4.30;99.90;;;;;;5045306;28;20035;-75
2021/12/10 13:05:48;;;;;;;38.50;15.45;;;4.20;99.90;;;;;;5031361;28;20037;-75
2021/12/10 13:08:18;;;;;;;34.42;14.95;;;4.20;99.90;;;;;;5044332;28;20525;-77
2021/12/10 13:10:52;;;;;;;35.33;15.55;;;4.20;99.90;;;;;;5048145;28;20036;-75
2021/12/10 13:13:31;;;;;;;41.28;16.00;;;4.30;99.90;;;;;;5047102;28;20031;-75
2021/12/10 13:15:57;;;;;;;39.50;17.02;;;4.30;99.90;;;;;;5025471;28;20021;-76